createdAt,value
2022-10-02T00:00:50.265Z,92.90
2022-10-02T00:03:21.864Z,93.45
2022-10-02T00:05:58.550Z,93.14
2022-10-02T00:08:30.491Z,93.11
2022-10-02T00:11:01.040Z,93.64
2022-10-02T00:13:37.722Z,93.23
2022-10-02T00:16:10.086Z,95.32
2022-10-02T00:18:37.324Z,96.04
2022-10-02T00:21:18.084Z,94.61
2022-10-02T00:23:58.819Z,94.03
2022-10-02T00:26:31.265Z,93.56
2022-10-02T00:29:14.061Z,93.70
2022-10-02T00:31:50.592Z,93.46
2022-10-02T00:34:41.208Z,94.29
2022-10-02T00:37:23.640Z,94.21
2022-10-02T00:40:34.718Z,94.39
2022-10-02T00:43:23.539Z,93.87
2022-10-02T00:46:06.022Z,93.50
2022-10-02T00:48:47.665Z,94.72
2022-10-02T00:51:31.891Z,93.50
2022-10-02T00:54:16.168Z,93.74
2022-10-02T00:57:03.867Z,92.89
2022-10-02T00:59:42.300Z,92.87
2022-10-02T01:02:22.687Z,92.51
2022-10-02T01:04:50.542Z,92.46
2022-10-02T01:07:16.994Z,93.18
2022-10-02T01:09:44.168Z,93.46
2022-10-02T01:12:11.053Z,93.25
2022-10-02T01:14:39.533Z,92.88
2022-10-02T01:17:07.939Z,93.54
2022-10-02T01:19:39.330Z,92.50
2022-10-02T01:22:28.067Z,92.21
2022-10-02T01:24:55.380Z,92.50
2022-10-02T01:27:23.583Z,93.42
2022-10-02T01:29:57.093Z,93.20
2022-10-02T01:32:25.989Z,93.02
2022-10-02T01:34:56.539Z,93.89
2022-10-02T01:37:25.665Z,93.52
2022-10-02T01:39:52.290Z,93.54
2022-10-02T01:42:20.033Z,93.08
2022-10-02T01:44:46.839Z,92.90
2022-10-02T01:47:20.239Z,92.24
2022-10-02T01:49:49.616Z,91.77
2022-10-02T01:52:15.960Z,92.24
2022-10-02T01:55:19.950Z,91.95
2022-10-02T01:57:53.108Z,92.66
2022-10-02T02:00:22.987Z,92.08
2022-10-02T02:03:43.436Z,92.08
2022-10-02T02:06:18.562Z,91.88
2022-10-02T02:09:05.851Z,92.21
2022-10-02T02:11:33.728Z,92.66
2022-10-02T02:14:33.471Z,92.31
2022-10-02T02:17:08.815Z,91.97
2022-10-02T02:19:41.106Z,93.71
2022-10-02T02:22:24.892Z,93.00
2022-10-02T02:25:07.278Z,92.18
2022-10-02T02:27:37.964Z,92.21
2022-10-02T02:30:07.835Z,92.58
2022-10-02T02:32:36.464Z,92.98
2022-10-02T02:35:27.778Z,92.59
2022-10-02T02:37:57.176Z,93.13
2022-10-02T02:40:29.877Z,92.56
2022-10-02T02:43:00.987Z,92.47
2022-10-02T02:45:30.529Z,92.35
2022-10-02T02:48:06.213Z,92.72
2022-10-02T02:50:47.662Z,92.24
2022-10-02T02:53:19.653Z,92.04
2022-10-02T02:55:58.535Z,92.39
2022-10-02T02:58:37.211Z,92.33
2022-10-02T03:01:03.737Z,92.82
2022-10-02T03:03:30.260Z,93.39
2022-10-02T03:06:04.504Z,92.88
2022-10-02T03:08:36.398Z,93.50
2022-10-02T03:11:13.684Z,93.61
2022-10-02T03:13:39.999Z,93.86
2022-10-02T03:16:44.672Z,93.65
2022-10-02T03:19:16.402Z,94.49
2022-10-02T03:21:55.638Z,95.86
2022-10-02T03:24:39.344Z,96.81
2022-10-02T03:27:12.673Z,96.47
2022-10-02T03:29:46.660Z,98.18
2022-10-02T03:32:15.411Z,97.95
2022-10-02T03:34:42.047Z,98.68
2022-10-02T03:37:08.628Z,98.21
2022-10-02T03:39:35.117Z,97.87
2022-10-02T03:42:01.750Z,97.76
2022-10-02T03:44:28.272Z,97.56
2022-10-02T03:46:55.600Z,98.82
2022-10-02T03:49:22.083Z,99.11
2022-10-02T03:51:48.551Z,98.57
2022-10-02T03:54:18.695Z,97.92
2022-10-02T03:56:58.165Z,98.55
2022-10-02T03:59:37.193Z,98.91
2022-10-02T04:02:07.985Z,98.16
2022-10-02T04:04:48.307Z,98.42
2022-10-02T04:07:20.350Z,99.31
2022-10-02T04:09:52.195Z,98.35
2022-10-02T04:12:22.922Z,98.60
2022-10-02T04:15:28.290Z,98.73
2022-10-02T04:17:59.954Z,99.39
2022-10-02T04:20:37.299Z,98.76
2022-10-02T04:23:12.894Z,99.06
2022-10-02T04:25:44.305Z,99.27
2022-10-02T04:28:16.512Z,98.32
2022-10-02T04:30:44.192Z,98.25
2022-10-02T04:33:20.909Z,98.57
2022-10-02T04:35:53.809Z,98.62
2022-10-02T04:38:27.293Z,97.92
2022-10-02T04:41:08.667Z,99.64
2022-10-02T04:43:43.787Z,99.97
2022-10-02T04:46:19.578Z,99.52
2022-10-02T04:49:24.023Z,99.51
2022-10-02T04:52:01.994Z,99.31
2022-10-02T04:57:48.672Z,98.78
2022-10-02T05:00:20.841Z,98.99
2022-10-02T05:03:15.407Z,98.76
2022-10-02T05:06:06.327Z,98.80
2022-10-02T05:08:44.206Z,98.36
2022-10-02T05:11:35.568Z,98.31
2022-10-02T05:14:15.423Z,98.44
2022-10-02T05:17:04.400Z,98.53
2022-10-02T05:20:22.779Z,98.62
2022-10-02T05:23:11.900Z,98.27
2022-10-02T05:25:46.122Z,98.65
2022-10-02T05:28:37.411Z,99.37
2022-10-02T05:31:18.041Z,98.49
2022-10-02T05:34:04.199Z,98.35
2022-10-02T05:36:40.131Z,98.45
2022-10-02T05:39:18.667Z,98.08
2022-10-02T05:41:48.339Z,98.16
2022-10-02T05:44:27.336Z,98.14
2022-10-02T05:47:15.157Z,97.93
2022-10-02T05:49:48.842Z,98.00
2022-10-02T05:52:21.109Z,99.21
2022-10-02T05:54:54.099Z,97.70
2022-10-02T05:57:37.104Z,98.32
2022-10-02T06:00:45.329Z,98.92
2022-10-02T06:03:23.091Z,98.16
2022-10-02T06:06:01.063Z,97.99
2022-10-02T06:08:35.791Z,98.75
2022-10-02T06:11:32.357Z,98.61
2022-10-02T06:14:12.913Z,98.21
2022-10-02T06:16:44.101Z,98.09
2022-10-02T06:19:25.749Z,98.64
2022-10-02T06:22:00.241Z,97.69
2022-10-02T06:25:05.381Z,97.53
2022-10-02T06:27:39.772Z,97.77
2022-10-02T06:30:10.869Z,97.47
2022-10-02T06:32:49.010Z,97.37
2022-10-02T06:35:17.044Z,97.10
2022-10-02T06:38:05.335Z,96.70
2022-10-02T06:40:43.627Z,96.69
2022-10-02T06:43:19.314Z,95.89
2022-10-02T06:46:22.806Z,95.95
2022-10-02T06:49:09.677Z,95.10
2022-10-02T06:51:44.020Z,94.92
2022-10-02T06:54:22.140Z,95.04
2022-10-02T06:57:17.791Z,94.70
2022-10-02T06:59:55.689Z,93.08
2022-10-02T07:03:00.400Z,92.67
2022-10-02T07:05:34.933Z,91.72
2022-10-02T07:08:12.088Z,91.43
2022-10-02T07:10:56.677Z,90.21
2022-10-02T07:13:32.394Z,89.12
2022-10-02T07:16:31.064Z,88.89
2022-10-02T07:19:11.366Z,88.32
2022-10-02T07:21:50.349Z,85.67
2022-10-02T07:24:31.074Z,84.39
2022-10-02T07:27:18.922Z,82.57
2022-10-02T07:29:58.239Z,82.59
2022-10-02T07:32:38.809Z,80.90
2022-10-02T07:35:27.835Z,80.16
2022-10-02T07:38:15.317Z,79.87
2022-10-02T07:40:41.897Z,78.93
2022-10-02T07:43:33.010Z,80.53
2022-10-02T07:46:09.871Z,78.05
2022-10-02T07:48:45.682Z,77.85
2022-10-02T07:51:33.874Z,76.83
2022-10-02T07:54:32.869Z,76.06
2022-10-02T07:57:15.164Z,77.23
2022-10-02T07:59:43.691Z,74.35
2022-10-02T08:02:33.232Z,73.88
2022-10-02T08:05:04.217Z,75.24
2022-10-02T08:07:31.507Z,72.88
2022-10-02T08:10:00.499Z,74.05
2022-10-02T08:12:32.289Z,75.18
2022-10-02T08:14:59.341Z,75.06
2022-10-02T08:17:51.495Z,74.00
2022-10-02T08:20:29.920Z,74.17
2022-10-02T08:23:03.660Z,75.48
2022-10-02T08:25:48.728Z,73.77
2022-10-02T08:28:28.013Z,73.35
2022-10-02T08:30:54.524Z,72.53
2022-10-02T08:33:25.701Z,70.99
2022-10-02T08:36:18.411Z,71.28
2022-10-02T08:38:54.588Z,70.03
2022-10-02T08:41:27.913Z,72.22
2022-10-02T08:44:00.163Z,73.58
2022-10-02T08:46:58.365Z,72.68
2022-10-02T08:49:41.029Z,72.47
2022-10-02T08:52:43.369Z,73.23
2022-10-02T08:55:30.091Z,73.79
2022-10-02T08:58:03.943Z,73.14
2022-10-02T09:00:37.529Z,73.56
2022-10-02T09:03:54.941Z,73.46
2022-10-02T09:07:13.621Z,70.77
2022-10-02T09:09:42.896Z,68.55
2022-10-02T09:12:33.600Z,67.01
2022-10-02T09:15:34.487Z,66.04
2022-10-02T09:18:22.626Z,66.56
2022-10-02T09:21:01.024Z,65.64
2022-10-02T09:23:58.575Z,66.69
2022-10-02T09:27:02.924Z,67.61
2022-10-02T09:29:58.740Z,68.29
2022-10-02T09:32:53.021Z,68.81
2022-10-02T09:35:57.668Z,69.61
2022-10-02T09:38:45.836Z,68.50
2022-10-02T09:41:28.554Z,67.98
2022-10-02T09:44:14.215Z,69.91
2022-10-02T09:47:05.137Z,70.39
2022-10-02T09:49:34.825Z,71.45
2022-10-02T09:52:16.576Z,73.08
2022-10-02T09:55:11.772Z,73.61
2022-10-02T09:58:06.779Z,73.21
2022-10-02T10:00:52.143Z,72.33
2022-10-02T10:03:45.449Z,72.32
2022-10-02T10:06:30.548Z,69.54
2022-10-02T10:09:15.273Z,70.48
2022-10-02T10:12:19.273Z,69.77
2022-10-02T10:15:23.744Z,69.45
2022-10-02T10:18:04.138Z,69.87
2022-10-02T10:20:51.713Z,69.25
2022-10-02T10:23:41.528Z,70.78
2022-10-02T10:26:33.226Z,71.27
2022-10-02T10:29:27.533Z,71.79
2022-10-02T10:32:12.025Z,69.85
2022-10-02T10:35:09.756Z,70.51
2022-10-02T10:38:30.100Z,70.38
2022-10-02T10:41:14.863Z,70.38
2022-10-02T10:43:59.431Z,71.43
2022-10-02T10:46:44.883Z,71.08
2022-10-02T10:49:35.196Z,71.17
2022-10-02T10:52:14.166Z,70.70
2022-10-02T10:55:13.589Z,71.17
2022-10-02T10:57:56.684Z,72.21
2022-10-02T11:00:29.781Z,73.75
2022-10-02T11:03:08.607Z,76.17
2022-10-02T11:05:53.369Z,76.65
2022-10-02T11:08:50.015Z,79.28
2022-10-02T11:11:23.175Z,80.04
2022-10-02T11:14:16.573Z,80.28
2022-10-02T11:17:06.166Z,80.94
2022-10-02T11:19:57.571Z,82.37
2022-10-02T11:23:09.152Z,84.10
2022-10-02T11:25:49.012Z,85.31
2022-10-02T11:28:37.346Z,86.04
2022-10-02T11:31:30.028Z,87.26
2022-10-02T11:34:16.698Z,88.24
2022-10-02T11:37:05.811Z,87.47
2022-10-02T11:39:44.547Z,88.63
2022-10-02T11:42:23.002Z,87.41
2022-10-02T11:45:14.551Z,85.58
2022-10-02T11:48:13.458Z,85.25
2022-10-02T11:50:44.856Z,85.97
2022-10-02T11:53:48.255Z,86.35
2022-10-02T11:56:23.906Z,86.99
2022-10-02T11:59:18.319Z,87.88
2022-10-02T12:01:52.882Z,87.17
2022-10-02T12:04:31.624Z,86.93
2022-10-02T12:07:15.017Z,87.25
2022-10-02T12:09:50.668Z,86.60
2022-10-02T12:12:51.481Z,86.64
2022-10-02T12:15:34.210Z,87.62
2022-10-02T12:18:03.580Z,86.50
2022-10-02T12:20:57.364Z,86.40
2022-10-02T12:24:05.938Z,83.13
2022-10-02T12:26:53.956Z,81.23
2022-10-02T12:29:29.160Z,80.21
2022-10-02T12:32:36.433Z,79.52
2022-10-02T12:35:23.067Z,77.42
2022-10-02T12:38:01.822Z,73.56
2022-10-02T12:40:41.711Z,72.31
2022-10-02T12:43:45.914Z,72.28
2022-10-02T12:46:40.316Z,70.60
2022-10-02T12:49:21.546Z,69.99
2022-10-02T12:52:07.076Z,70.25
2022-10-02T12:55:04.223Z,70.36
2022-10-02T12:57:51.878Z,67.68
2022-10-02T13:00:19.787Z,69.36
2022-10-02T13:03:25.185Z,66.86
2022-10-02T13:06:00.881Z,66.58
2022-10-02T13:08:38.094Z,68.51
2022-10-02T13:11:07.155Z,70.33
2022-10-02T13:13:49.890Z,72.38
2022-10-02T13:16:48.808Z,73.74
2022-10-02T13:19:35.982Z,72.85
2022-10-02T13:22:49.380Z,71.44
2022-10-02T13:25:33.290Z,67.14
2022-10-02T13:28:01.365Z,66.57
2022-10-02T13:30:35.870Z,66.72
2022-10-02T13:33:25.151Z,65.55
2022-10-02T13:36:08.432Z,65.86
2022-10-02T13:38:48.659Z,65.55
2022-10-02T13:41:27.092Z,69.15
2022-10-02T13:44:03.329Z,72.77
2022-10-02T13:46:44.673Z,76.45
2022-10-02T13:49:18.109Z,80.76
2022-10-02T13:52:12.565Z,84.59
2022-10-02T13:54:53.950Z,87.41
2022-10-02T13:58:08.631Z,88.78
2022-10-02T14:00:37.672Z,90.32
2022-10-02T14:03:07.242Z,87.71
2022-10-02T14:05:37.023Z,85.98
2022-10-02T14:08:29.733Z,82.92
2022-10-02T14:11:22.195Z,84.15
2022-10-02T14:13:59.066Z,83.58
2022-10-02T14:17:02.047Z,81.69
2022-10-02T14:19:35.604Z,83.66
2022-10-02T14:22:16.038Z,82.40
2022-10-02T14:25:08.384Z,82.47
2022-10-02T14:28:05.806Z,82.49
2022-10-02T14:30:50.474Z,81.78
2022-10-02T14:33:42.256Z,82.11
2022-10-02T14:36:34.502Z,81.46
2022-10-02T14:39:39.691Z,82.12
2022-10-02T14:42:30.956Z,83.09
2022-10-02T14:45:21.329Z,83.03
2022-10-02T14:48:10.292Z,84.15
2022-10-02T14:50:49.180Z,84.88
2022-10-02T14:53:34.098Z,86.14
2022-10-02T14:56:09.037Z,86.06
2022-10-02T14:58:56.783Z,86.10
2022-10-02T15:01:24.574Z,86.56
2022-10-02T15:04:08.078Z,85.40
2022-10-02T15:07:05.338Z,86.89
2022-10-02T15:10:18.306Z,86.40
2022-10-02T15:13:01.963Z,87.25
2022-10-02T15:16:14.505Z,87.08
2022-10-02T15:18:50.804Z,86.58
2022-10-02T15:21:39.805Z,86.75
2022-10-02T15:24:39.379Z,86.15
2022-10-02T15:27:33.257Z,86.23
2022-10-02T15:30:08.493Z,86.55
2022-10-02T15:32:44.286Z,87.00
2022-10-02T15:35:45.318Z,87.46
2022-10-02T15:38:34.505Z,86.04
2022-10-02T15:41:13.098Z,85.99
2022-10-02T15:44:21.488Z,85.69
2022-10-02T15:46:50.834Z,86.60
2022-10-02T15:49:27.994Z,86.10
2022-10-02T15:52:10.280Z,86.43
2022-10-02T15:54:39.514Z,86.51
2022-10-02T15:57:13.527Z,87.00
2022-10-02T15:59:45.685Z,87.08
2022-10-02T16:02:36.009Z,87.14
2022-10-02T16:05:19.015Z,86.74
2022-10-02T16:07:51.545Z,86.79
2022-10-02T16:10:29.083Z,87.18
2022-10-02T16:13:32.855Z,88.10
2022-10-02T16:16:26.421Z,88.03
2022-10-02T16:19:11.539Z,88.68
2022-10-02T16:22:18.407Z,88.29
2022-10-02T16:24:59.311Z,88.45
2022-10-02T16:27:50.577Z,88.51
2022-10-02T16:30:18.745Z,88.97
2022-10-02T16:33:21.792Z,88.35
2022-10-02T16:36:11.616Z,88.88
2022-10-02T16:38:48.890Z,89.36
2022-10-02T16:41:38.732Z,89.60
2022-10-02T16:44:43.433Z,90.27
2022-10-02T16:47:18.402Z,90.65
2022-10-02T16:49:54.072Z,90.44
2022-10-02T16:52:26.961Z,91.40
2022-10-02T16:54:59.567Z,91.39
2022-10-02T16:57:35.123Z,91.97
2022-10-02T17:00:07.864Z,92.50
2022-10-02T17:02:43.480Z,92.56
2022-10-02T17:05:29.035Z,92.43
2022-10-02T17:08:10.245Z,91.83
2022-10-02T17:10:55.776Z,91.48
2022-10-02T17:13:30.324Z,91.40
2022-10-02T17:16:03.199Z,90.83
2022-10-02T17:18:40.953Z,91.17
2022-10-02T17:21:24.311Z,91.49
2022-10-02T17:24:16.619Z,90.96
2022-10-02T17:26:52.247Z,91.42
2022-10-02T17:29:44.708Z,91.15
2022-10-02T17:32:11.223Z,91.06
2022-10-02T17:34:49.166Z,91.47
2022-10-02T17:37:18.570Z,92.59
2022-10-02T17:39:53.744Z,92.65
2022-10-02T17:42:44.153Z,92.92
2022-10-02T17:45:22.118Z,93.32
2022-10-02T17:48:26.771Z,94.13
2022-10-02T17:51:03.234Z,94.17
2022-10-02T17:54:05.971Z,94.78
2022-10-02T17:56:55.810Z,94.76
2022-10-02T18:00:13.792Z,95.60
2022-10-02T18:02:43.257Z,95.09
2022-10-02T18:05:27.709Z,95.10
2022-10-02T18:08:18.807Z,95.78
2022-10-02T18:11:04.034Z,95.56
2022-10-02T18:13:48.691Z,96.24
2022-10-02T18:16:33.645Z,96.21
2022-10-02T18:19:14.749Z,96.54
2022-10-02T18:21:53.840Z,96.66
2022-10-02T18:24:39.629Z,96.79
2022-10-02T18:27:47.664Z,98.62
2022-10-02T18:30:22.191Z,97.87
2022-10-02T18:33:01.697Z,97.66
2022-10-02T18:35:50.294Z,99.91
2022-10-02T18:38:30.669Z,99.27
2022-10-02T18:41:20.427Z,97.92
2022-10-02T18:44:02.471Z,95.83
2022-10-02T18:46:40.803Z,95.05
2022-10-02T18:49:45.313Z,95.80
2022-10-02T18:52:32.900Z,96.31
2022-10-02T18:55:41.896Z,96.53
2022-10-02T18:58:42.776Z,96.50
2022-10-02T19:01:56.762Z,96.58
2022-10-02T19:05:08.356Z,96.87
2022-10-02T19:07:42.258Z,96.29
2022-10-02T19:10:27.147Z,97.69
2022-10-02T19:12:57.963Z,97.42
2022-10-02T19:15:33.518Z,97.34
2022-10-02T19:18:03.011Z,97.79
2022-10-02T19:20:49.498Z,96.89
2022-10-02T19:23:27.931Z,96.60
2022-10-02T19:26:04.806Z,96.59
2022-10-02T19:28:31.882Z,96.71
2022-10-02T19:31:07.021Z,96.57
2022-10-02T19:33:42.132Z,95.67
2022-10-02T19:36:15.819Z,95.33
2022-10-02T19:38:49.488Z,95.27
2022-10-02T19:41:16.056Z,94.87
2022-10-02T19:43:48.184Z,94.24
2022-10-02T19:46:18.171Z,93.96
2022-10-02T19:48:44.778Z,93.71
2022-10-02T19:51:21.522Z,94.29
2022-10-02T19:54:13.301Z,93.82
2022-10-02T19:56:44.562Z,93.83
2022-10-02T19:59:19.725Z,94.39
2022-10-02T20:01:54.284Z,94.89
2022-10-02T20:04:43.457Z,94.61
2022-10-02T20:07:14.923Z,94.58
2022-10-02T20:09:51.452Z,94.53
2022-10-02T20:12:28.918Z,94.38
2022-10-02T20:15:42.936Z,94.76
2022-10-02T20:18:11.604Z,94.22
2022-10-02T20:20:39.333Z,94.66
2022-10-02T20:23:13.050Z,95.06
2022-10-02T20:25:43.278Z,94.91
2022-10-02T20:28:18.412Z,95.15
2022-10-02T20:31:02.286Z,94.83
2022-10-02T20:33:35.382Z,94.93
2022-10-02T20:36:03.163Z,94.96
2022-10-02T20:38:41.138Z,95.06
2022-10-02T20:41:29.108Z,95.23
2022-10-02T20:44:02.350Z,95.88
2022-10-02T20:47:04.026Z,95.25
2022-10-02T20:49:53.559Z,94.91
2022-10-02T20:52:34.412Z,95.40
2022-10-02T20:55:18.184Z,95.40
2022-10-02T20:58:01.131Z,95.04
2022-10-02T21:00:36.645Z,95.15
2022-10-02T21:03:31.091Z,95.10
2022-10-02T21:06:15.963Z,95.05
2022-10-02T21:09:02.472Z,94.64
2022-10-02T21:11:42.535Z,95.24
2022-10-02T21:14:22.726Z,95.13
2022-10-02T21:17:07.682Z,95.69
2022-10-02T21:20:01.937Z,95.89
2022-10-02T21:23:00.069Z,96.30
2022-10-02T21:25:50.051Z,96.33
2022-10-02T21:28:25.778Z,96.61
2022-10-02T21:31:15.496Z,96.73
2022-10-02T21:33:49.502Z,96.28
2022-10-02T21:36:22.524Z,96.16
2022-10-02T21:39:23.299Z,96.67
2022-10-02T21:42:10.687Z,97.26
2022-10-02T21:44:58.214Z,97.00
2022-10-02T21:47:50.671Z,97.18
2022-10-02T21:50:27.931Z,97.68
2022-10-02T21:53:32.618Z,97.61
2022-10-02T21:56:14.850Z,98.08
2022-10-02T21:59:04.067Z,98.36
2022-10-02T22:02:04.103Z,97.87
2022-10-02T22:04:44.153Z,99.17
2022-10-02T22:07:36.771Z,98.77
2022-10-02T22:10:38.817Z,99.00
2022-10-02T22:13:09.726Z,98.47
2022-10-02T22:15:44.070Z,98.44
2022-10-02T22:18:30.389Z,98.66
2022-10-02T22:21:26.545Z,97.93
2022-10-02T22:24:02.941Z,98.24
2022-10-02T22:26:48.331Z,98.76
2022-10-02T22:29:22.218Z,98.94
2022-10-02T22:32:41.739Z,98.61
2022-10-02T22:35:23.477Z,98.64
2022-10-02T22:38:11.564Z,98.48
2022-10-02T22:41:09.403Z,97.86
2022-10-02T22:43:50.057Z,98.41
2022-10-02T22:46:40.446Z,98.25
2022-10-02T22:49:19.341Z,98.72
2022-10-02T22:52:00.270Z,98.95
2022-10-02T22:54:33.216Z,98.76
2022-10-02T22:57:10.899Z,98.45
2022-10-02T22:59:39.696Z,98.77
2022-10-02T23:02:31.055Z,98.89
2022-10-02T23:05:18.825Z,99.00
2022-10-02T23:07:49.634Z,99.30
2022-10-02T23:10:31.825Z,99.43
2022-10-02T23:13:09.695Z,99.94
2022-10-02T23:15:45.594Z,99.12
2022-10-02T23:18:16.717Z,99.06
2022-10-02T23:20:50.281Z,98.63
2022-10-02T23:23:23.695Z,98.83
2022-10-02T23:26:13.857Z,98.76
2022-10-02T23:28:55.511Z,98.77
2022-10-02T23:31:31.582Z,98.99
2022-10-02T23:34:04.132Z,97.94
2022-10-02T23:36:35.167Z,97.94
2022-10-02T23:39:12.181Z,97.87
2022-10-02T23:41:47.161Z,98.04
2022-10-02T23:44:26.969Z,98.28
2022-10-02T23:47:02.163Z,98.33
2022-10-02T23:49:39.027Z,99.99
2022-10-02T23:52:16.440Z,99.70
2022-10-02T23:55:04.867Z,100.00
2022-10-02T23:57:56.303Z,99.81
